Time;durP1;ratioP1;P1;durP2;ratioP2;P2;SDS_P1;SDS_P2;PMS_P1;PMS_P2;Temp;Humidity;BMP_temperature;BMP_pressure;BME280_temperature;BME280_humidity;BME280_pressure;Samples;Min_cycle;Max_cycle;Signal;HPM_P1;HPM_P2
2021/05/07 00:00:05;;;;;;;8.75;2.50;;;11.80;88.80;;;;;;5039744;28;20152;-72
2021/05/07 00:02:31;;;;;;;10.40;2.33;;;11.70;91.00;;;;;;5039976;28;20030;-72
2021/05/07 00:04:57;;;;;;;9.75;2.60;;;11.80;91.00;;;;;;5039525;28;20034;-72
2021/05/07 00:07:22;;;;;;;5.93;1.90;;;11.80;91.60;;;;;;5039834;28;20118;-72
2021/05/07 00:09:48;;;;;;;13.40;2.45;;;11.80;91.10;;;;;;5039553;28;20044;-72
2021/05/07 00:12:14;;;;;;;11.73;2.20;;;11.80;90.10;;;;;;5039557;28;20030;-72
2021/05/07 00:14:40;;;;;;;10.95;2.35;;;11.90;91.40;;;;;;5039722;28;20052;-72
2021/05/07 00:17:05;;;;;;;9.52;2.47;;;11.90;91.10;;;;;;5039507;28;20034;-72
2021/05/07 00:19:31;;;;;;;12.18;2.55;;;11.90;91.40;;;;;;5039400;28;20116;-72
2021/05/07 00:21:57;;;;;;;14.32;4.85;;;11.90;90.40;;;;;;5039633;28;20033;-72
2021/05/07 00:24:22;;;;;;;6.22;2.33;;;11.90;89.60;;;;;;5039724;28;20030;-72
2021/05/07 00:26:49;;;;;;;11.20;2.72;;;11.90;89.90;;;;;;5039168;28;20038;-72
2021/05/07 00:29:15;;;;;;;7.45;2.53;;;11.90;88.90;;;;;;5039179;28;20100;-72
2021/05/07 00:31:40;;;;;;;12.70;2.20;;;11.90;88.70;;;;;;5039465;28;20033;-72
2021/05/07 00:34:06;;;;;;;8.23;2.30;;;11.90;87.00;;;;;;5039353;28;20115;-72
2021/05/07 00:36:32;;;;;;;8.95;3.08;;;11.90;87.40;;;;;;5039377;28;20304;-72
2021/05/07 00:38:57;;;;;;;12.80;3.60;;;11.80;89.10;;;;;;5039350;28;20025;-72
2021/05/07 00:41:23;;;;;;;6.05;2.10;;;11.80;90.90;;;;;;5039324;28;20356;-72
2021/05/07 00:43:49;;;;;;;6.63;2.55;;;11.80;92.00;;;;;;5039213;28;20022;-72
2021/05/07 00:46:14;;;;;;;7.32;2.15;;;11.80;91.90;;;;;;5039200;28;20032;-72
2021/05/07 00:48:41;;;;;;;7.35;2.28;;;11.70;91.50;;;;;;5037923;28;20033;-72
2021/05/07 00:51:06;;;;;;;9.15;2.05;;;11.70;91.00;;;;;;5038758;28;20025;-72
2021/05/07 00:53:33;;;;;;;7.43;2.03;;;11.70;90.00;;;;;;5038767;28;20036;-72
2021/05/07 00:55:58;;;;;;;9.40;2.70;;;11.70;89.10;;;;;;5038977;28;20330;-72
2021/05/07 00:58:24;;;;;;;5.93;1.95;;;11.60;89.10;;;;;;5038977;28;20036;-72
2021/05/07 01:00:52;;;;;;;7.43;2.00;;;11.70;89.60;;;;;;5038595;28;20041;-72
2021/05/07 01:03:19;;;;;;;10.55;2.45;;;11.70;90.70;;;;;;5038619;28;20032;-72
2021/05/07 01:05:45;;;;;;;8.00;2.10;;;11.80;90.90;;;;;;5038766;28;20040;-72
2021/05/07 01:08:12;;;;;;;7.47;1.83;;;11.80;90.90;;;;;;5038439;28;20025;-72
2021/05/07 01:10:37;;;;;;;7.60;2.13;;;11.90;90.90;;;;;;5038745;28;20026;-72
2021/05/07 01:13:03;;;;;;;14.40;2.88;;;11.80;91.40;;;;;;5038744;28;20017;-72
2021/05/07 01:15:29;;;;;;;8.55;2.67;;;11.80;91.80;;;;;;5038286;28;20029;-72
2021/05/07 01:17:57;;;;;;;10.57;2.40;;;11.70;90.70;;;;;;5038112;28;20053;-72
2021/05/07 01:20:25;;;;;;;8.77;1.80;;;11.70;90.00;;;;;;5037172;28;20092;-72
2021/05/07 01:22:56;;;;;;;13.18;2.25;;;11.70;88.90;;;;;;5038501;28;20148;-72
2021/05/07 01:25:36;;;;;;;12.10;2.28;;;11.70;89.00;;;;;;5038435;28;20330;-72
2021/05/07 01:28:06;;;;;;;9.18;2.50;;;11.70;89.20;;;;;;5038387;28;20107;-72
2021/05/07 01:30:35;;;;;;;8.18;2.78;;;11.70;88.70;;;;;;5038063;28;20029;-72
2021/05/07 01:33:01;;;;;;;11.07;2.15;;;11.70;90.60;;;;;;5038360;28;20028;-72
2021/05/07 01:35:29;;;;;;;14.80;2.08;;;11.70;91.40;;;;;;5038163;28;20025;-72
2021/05/07 01:37:57;;;;;;;6.88;2.10;;;11.70;91.20;;;;;;5037899;28;20410;-72
2021/05/07 01:40:25;;;;;;;7.30;1.90;;;11.70;91.50;;;;;;5038062;28;20061;-72
2021/05/07 01:42:53;;;;;;;10.23;2.33;;;11.70;92.10;;;;;;5037817;28;20087;-72
2021/05/07 01:45:22;;;;;;;7.07;1.80;;;11.70;92.70;;;;;;5037699;28;20087;-72
2021/05/07 01:47:49;;;;;;;11.75;2.25;;;11.70;92.30;;;;;;5037608;28;20029;-72
2021/05/07 01:50:17;;;;;;;10.05;2.85;;;11.70;92.10;;;;;;5037934;28;20017;-72
2021/05/07 01:52:43;;;;;;;13.38;2.80;;;11.70;91.00;;;;;;5037620;28;20410;-71
2021/05/07 01:55:15;;;;;;;13.05;2.60;;;11.70;89.20;;;;;;5037504;28;20028;-72
2021/05/07 01:57:41;;;;;;;8.32;2.38;;;11.70;89.90;;;;;;5037496;28;20091;-72
2021/05/07 02:00:11;;;;;;;8.75;2.08;;;11.80;90.50;;;;;;5037159;28;20025;-72
2021/05/07 02:02:37;;;;;;;5.32;1.70;;;11.70;91.10;;;;;;5037779;28;20037;-72
2021/05/07 02:05:05;;;;;;;6.80;2.10;;;11.80;91.90;;;;;;5037294;28;20026;-72
2021/05/07 02:07:31;;;;;;;9.23;2.75;;;11.80;92.30;;;;;;5037551;28;20079;-72
2021/05/07 02:09:57;;;;;;;12.13;3.10;;;11.70;90.70;;;;;;5037549;28;20361;-72
2021/05/07 02:12:23;;;;;;;13.65;2.60;;;11.70;89.20;;;;;;5037345;28;20109;-72
2021/05/07 02:14:49;;;;;;;11.50;2.78;;;11.70;88.60;;;;;;5037475;28;20148;-72
2021/05/07 02:17:15;;;;;;;7.68;2.70;;;11.70;89.70;;;;;;5037289;28;20235;-72
2021/05/07 02:19:40;;;;;;;8.40;2.85;;;11.70;90.90;;;;;;5037177;28;20494;-72
2021/05/07 02:22:06;;;;;;;15.85;3.70;;;11.70;89.60;;;;;;5037434;28;20029;-72
2021/05/07 02:24:32;;;;;;;9.15;2.50;;;11.70;88.80;;;;;;5036955;28;20091;-72
2021/05/07 02:26:58;;;;;;;9.63;3.00;;;11.60;88.50;;;;;;5036951;28;20036;-72
2021/05/07 02:29:23;;;;;;;8.05;2.63;;;11.60;88.70;;;;;;5037315;28;20032;-72
2021/05/07 02:31:49;;;;;;;6.78;2.25;;;11.70;89.90;;;;;;5037314;28;20022;-72
2021/05/07 02:34:15;;;;;;;10.77;2.90;;;11.70;90.50;;;;;;5037151;28;20024;-72
2021/05/07 02:36:41;;;;;;;10.38;2.95;;;11.70;89.40;;;;;;5036862;28;20025;-72
2021/05/07 02:39:08;;;;;;;12.13;2.67;;;11.70;88.50;;;;;;5035835;28;20369;-72
2021/05/07 02:41:37;;;;;;;8.75;2.50;;;11.70;87.90;;;;;;5037176;28;20036;-72
2021/05/07 02:44:06;;;;;;;10.82;2.95;;;11.70;88.30;;;;;;5036762;28;20021;-72
2021/05/07 02:46:33;;;;;;;14.95;3.40;;;11.70;88.90;;;;;;5036952;28;20096;-72
2021/05/07 02:49:03;;;;;;;8.80;3.33;;;11.60;89.50;;;;;;5037024;28;20089;-72
2021/05/07 02:51:30;;;;;;;11.35;3.50;;;11.50;89.10;;;;;;5036715;28;20108;-72
2021/05/07 02:53:56;;;;;;;13.02;2.75;;;11.50;89.10;;;;;;5036868;28;20029;-72
2021/05/07 02:56:22;;;;;;;9.25;2.75;;;11.60;89.70;;;;;;5036945;28;20326;-72
2021/05/07 02:58:48;;;;;;;9.65;2.17;;;11.60;89.80;;;;;;5036613;28;20025;-72
2021/05/07 03:01:14;;;;;;;11.02;2.45;;;11.60;89.30;;;;;;5036956;28;20030;-72
2021/05/07 03:03:39;;;;;;;9.80;2.30;;;11.70;91.00;;;;;;5036828;28;20356;-72
2021/05/07 03:06:05;;;;;;;7.90;2.20;;;11.70;90.80;;;;;;5036563;28;20034;-72
2021/05/07 03:08:31;;;;;;;8.60;2.17;;;11.70;91.40;;;;;;5036750;28;20025;-72
2021/05/07 03:10:57;;;;;;;9.77;2.30;;;11.70;89.40;;;;;;5036468;28;20026;-72
2021/05/07 03:13:23;;;;;;;10.82;2.38;;;11.70;89.10;;;;;;5039852;28;20018;-72
2021/05/07 03:15:49;;;;;;;9.57;2.58;;;11.70;88.40;;;;;;5040511;28;20104;-72
2021/05/07 03:18:19;;;;;;;8.27;2.03;;;11.70;88.50;;;;;;5040422;28;20045;-72
2021/05/07 03:20:46;;;;;;;12.25;2.33;;;11.70;90.40;;;;;;5040805;28;20052;-72
2021/05/07 03:23:12;;;;;;;14.82;2.83;;;11.60;90.60;;;;;;5040368;28;20056;-72
2021/05/07 03:25:39;;;;;;;15.77;3.10;;;11.60;89.30;;;;;;5040317;28;20029;-72
2021/05/07 03:28:05;;;;;;;7.80;2.25;;;11.50;89.30;;;;;;5039237;28;20053;-72
2021/05/07 03:30:32;;;;;;;8.98;2.83;;;11.50;89.00;;;;;;5040585;28;20018;-72
2021/05/07 03:33:03;;;;;;;16.45;2.75;;;11.50;89.20;;;;;;5040579;28;20083;-72
2021/05/07 03:35:29;;;;;;;13.15;2.85;;;11.40;89.40;;;;;;5040172;28;20464;-72
2021/05/07 03:37:55;;;;;;;11.40;2.70;;;11.40;89.60;;;;;;5040497;28;20375;-72
2021/05/07 03:40:21;;;;;;;6.05;1.80;;;11.40;91.70;;;;;;5040382;28;20057;-72
2021/05/07 03:42:47;;;;;;;10.73;1.80;;;11.30;91.30;;;;;;5040416;28;20025;-72
2021/05/07 03:45:14;;;;;;;8.18;2.03;;;11.20;92.10;;;;;;5040269;28;20036;-72
2021/05/07 03:47:41;;;;;;;8.52;2.35;;;11.10;92.20;;;;;;5039907;28;20028;-72
2021/05/07 03:50:07;;;;;;;8.48;2.05;;;11.10;91.90;;;;;;5040206;28;20422;-72
2021/05/07 03:52:33;;;;;;;10.75;2.17;;;11.10;91.90;;;;;;5040127;28;20017;-72
2021/05/07 03:54:59;;;;;;;8.70;2.05;;;11.10;92.30;;;;;;5040057;28;20041;-72
2021/05/07 03:57:25;;;;;;;7.10;2.20;;;11.10;92.40;;;;;;5040104;28;20029;-72
2021/05/07 03:59:51;;;;;;;10.80;2.88;;;11.30;92.00;;;;;;5039719;28;20057;-72
2021/05/07 04:02:17;;;;;;;7.95;1.80;;;11.40;91.80;;;;;;5039802;28;20063;-72
2021/05/07 04:04:44;;;;;;;9.65;2.05;;;11.40;90.90;;;;;;5039586;28;20025;-72
2021/05/07 04:07:13;;;;;;;8.00;2.00;;;11.40;90.70;;;;;;5039534;28;20433;-72
2021/05/07 04:09:43;;;;;;;8.88;2.10;;;11.40;90.80;;;;;;5039898;28;20041;-72
2021/05/07 04:14:37;;;;;;;6.28;2.08;;;11.60;91.40;;;;;;5039455;28;20034;-72
2021/05/07 04:17:03;;;;;;;12.25;2.03;;;11.70;91.50;;;;;;5039218;28;20032;-72
2021/05/07 04:19:29;;;;;;;6.95;1.85;;;11.80;91.50;;;;;;5039717;28;20036;-72
2021/05/07 04:21:55;;;;;;;9.60;2.08;;;11.80;91.50;;;;;;5039366;28;20029;-72
2021/05/07 04:24:21;;;;;;;8.10;2.13;;;11.80;91.40;;;;;;5039553;28;20028;-72
2021/05/07 04:26:46;;;;;;;9.15;2.35;;;11.90;91.00;;;;;;5039506;28;20125;-72
2021/05/07 04:29:12;;;;;;;7.72;2.15;;;11.90;90.90;;;;;;5039566;28;20417;-72
2021/05/07 04:31:38;;;;;;;14.32;2.92;;;11.90;89.90;;;;;;5039516;28;20030;-72
2021/05/07 04:34:06;;;;;;;10.40;2.08;;;12.00;90.20;;;;;;5039123;28;20113;-72
2021/05/07 04:36:32;;;;;;;10.07;2.17;;;12.00;89.60;;;;;;5039113;28;20030;-72
2021/05/07 04:38:58;;;;;;;4.80;1.83;;;12.10;90.40;;;;;;5039340;28;20287;-72
2021/05/07 04:41:24;;;;;;;12.05;2.35;;;12.20;91.00;;;;;;5039037;28;20108;-72
2021/05/07 04:43:51;;;;;;;11.00;2.30;;;12.20;91.20;;;;;;5039186;28;20022;-72
2021/05/07 04:46:16;;;;;;;10.80;2.72;;;12.30;91.50;;;;;;5039224;28;20115;-72
2021/05/07 04:48:42;;;;;;;10.77;2.33;;;12.30;89.80;;;;;;5038826;28;20421;-72
2021/05/07 04:51:08;;;;;;;6.38;2.13;;;12.30;88.30;;;;;;5039117;28;20022;-72
2021/05/07 04:53:33;;;;;;;12.52;2.20;;;12.30;88.40;;;;;;5038770;28;20314;-72
2021/05/07 04:55:59;;;;;;;12.35;2.97;;;12.40;88.50;;;;;;5039061;28;20180;-72
2021/05/07 04:58:25;;;;;;;6.00;1.90;;;12.40;87.70;;;;;;5038976;28;20026;-72
2021/05/07 05:00:50;;;;;;;13.60;2.40;;;12.50;88.10;;;;;;5038945;28;20053;-72
2021/05/07 05:03:16;;;;;;;8.10;1.92;;;12.50;87.90;;;;;;5038965;28;20376;-71
2021/05/07 05:05:42;;;;;;;12.95;2.25;;;12.50;89.70;;;;;;5038745;28;20040;-72
2021/05/07 05:08:07;;;;;;;8.07;1.83;;;12.40;88.20;;;;;;5038429;28;20385;-72
2021/05/07 05:10:33;;;;;;;9.93;2.30;;;12.40;89.80;;;;;;5038730;28;20088;-72
2021/05/07 05:12:59;;;;;;;6.93;2.17;;;12.20;91.40;;;;;;5038762;28;20104;-72
2021/05/07 05:15:25;;;;;;;11.68;2.45;;;12.20;91.20;;;;;;5038325;28;20048;-72
2021/05/07 05:17:51;;;;;;;7.60;2.17;;;12.10;91.00;;;;;;5038270;28;20069;-72
2021/05/07 05:20:17;;;;;;;7.03;2.35;;;11.90;90.10;;;;;;5038291;28;20458;-72
2021/05/07 05:22:43;;;;;;;7.75;2.53;;;11.90;91.10;;;;;;5038240;28;20112;-72
2021/05/07 05:25:09;;;;;;;14.55;3.33;;;11.90;91.30;;;;;;5038069;28;20033;-72
2021/05/07 05:27:36;;;;;;;12.52;2.60;;;11.80;92.20;;;;;;5038065;28;20029;-72
2021/05/07 05:30:05;;;;;;;9.20;2.47;;;11.80;92.90;;;;;;5038073;28;20057;-72
2021/05/07 05:32:31;;;;;;;7.85;2.83;;;11.80;91.60;;;;;;5038049;28;20029;-72
2021/05/07 05:34:57;;;;;;;7.25;2.15;;;11.80;91.70;;;;;;5037650;28;20025;-72
2021/05/07 05:37:24;;;;;;;7.15;2.20;;;11.90;92.10;;;;;;5037906;28;20292;-72
2021/05/07 05:39:50;;;;;;;6.55;2.10;;;11.90;92.20;;;;;;5037857;28;20029;-72
2021/05/07 05:42:15;;;;;;;6.60;2.15;;;11.90;92.00;;;;;;5037863;28;20032;-72
2021/05/07 05:44:41;;;;;;;6.28;2.40;;;11.90;91.80;;;;;;5037770;28;20115;-72
2021/05/07 05:47:07;;;;;;;8.45;2.25;;;11.90;91.80;;;;;;5037993;28;20029;-72
2021/05/07 05:49:32;;;;;;;6.82;2.25;;;12.00;91.80;;;;;;5037719;28;20033;-72
2021/05/07 05:51:58;;;;;;;8.55;2.30;;;12.00;93.60;;;;;;5037943;28;20025;-72
2021/05/07 05:54:24;;;;;;;8.25;1.95;;;12.00;93.20;;;;;;5038016;28;20037;-72
2021/05/07 05:56:50;;;;;;;9.25;3.28;;;12.00;93.00;;;;;;5037543;28;20029;-72
2021/05/07 05:59:15;;;;;;;11.95;3.28;;;12.00;92.70;;;;;;5037845;28;20075;-72
2021/05/07 06:01:41;;;;;;;10.73;3.33;;;12.00;91.20;;;;;;5037798;28;20116;-72
2021/05/07 06:04:07;;;;;;;10.88;2.55;;;11.80;89.40;;;;;;5037664;28;20091;-72
2021/05/07 06:06:32;;;;;;;12.48;2.65;;;11.70;89.30;;;;;;5037390;28;20097;-72
2021/05/07 06:08:58;;;;;;;10.95;2.88;;;11.70;90.80;;;;;;5037559;28;20026;-72
2021/05/07 06:11:24;;;;;;;16.05;3.67;;;11.60;90.10;;;;;;5037675;28;20104;-72
2021/05/07 06:13:49;;;;;;;10.02;2.80;;;11.60;90.70;;;;;;5037518;28;20029;-72
2021/05/07 06:16:15;;;;;;;9.25;2.75;;;11.60;91.80;;;;;;5037290;28;20321;-72
2021/05/07 06:18:41;;;;;;;9.75;2.92;;;11.70;92.30;;;;;;5037037;28;20049;-72
2021/05/07 06:21:07;;;;;;;15.23;3.47;;;11.80;92.30;;;;;;5037093;28;20034;-72
2021/05/07 06:23:32;;;;;;;8.65;2.58;;;11.90;91.70;;;;;;5037211;28;20120;-72
2021/05/07 06:25:59;;;;;;;17.73;2.92;;;12.00;89.90;;;;;;5037069;28;20441;-72
2021/05/07 06:28:25;;;;;;;12.43;2.88;;;12.20;90.10;;;;;;5036935;28;20033;-72
2021/05/07 06:30:56;;;;;;;10.70;3.13;;;12.30;91.60;;;;;;5037301;28;20017;-72
2021/05/07 06:33:21;;;;;;;16.23;3.60;;;12.40;91.50;;;;;;5037023;28;20026;-72
2021/05/07 06:35:47;;;;;;;14.60;3.40;;;12.50;92.20;;;;;;5036866;28;20025;-72
2021/05/07 06:38:13;;;;;;;10.45;3.22;;;12.60;92.30;;;;;;5037232;28;20036;-72
2021/05/07 06:40:38;;;;;;;8.25;2.38;;;12.70;90.30;;;;;;5037128;28;20029;-72
2021/05/07 06:43:05;;;;;;;10.40;3.03;;;12.70;89.20;;;;;;5036895;28;20321;-72
2021/05/07 06:45:31;;;;;;;12.48;2.40;;;12.80;89.90;;;;;;5036694;28;20030;-72
2021/05/07 06:47:57;;;;;;;7.10;2.38;;;12.80;90.80;;;;;;5036128;28;20033;-72
2021/05/07 06:50:22;;;;;;;7.50;2.20;;;12.70;91.60;;;;;;5036728;28;20313;-72
2021/05/07 06:52:48;;;;;;;9.63;3.10;;;12.80;92.40;;;;;;5037020;28;20033;-72
2021/05/07 06:55:14;;;;;;;11.15;2.35;;;12.90;91.80;;;;;;5036891;28;20033;-72
2021/05/07 06:57:40;;;;;;;8.98;2.42;;;13.00;91.20;;;;;;5036954;28;20031;-72
2021/05/07 07:00:08;;;;;;;11.23;2.50;;;13.10;90.10;;;;;;5036592;28;20041;-72
2021/05/07 07:02:34;;;;;;;8.63;3.35;;;13.20;89.10;;;;;;5036971;28;20104;-72
2021/05/07 07:05:00;;;;;;;9.40;2.47;;;13.30;86.70;;;;;;5036506;28;20022;-72
2021/05/07 07:07:27;;;;;;;8.50;2.65;;;13.40;88.20;;;;;;5036769;28;20117;-72
2021/05/07 07:09:53;;;;;;;7.05;2.35;;;13.50;87.00;;;;;;5036809;28;20096;-72
2021/05/07 07:12:19;;;;;;;10.10;2.55;;;13.60;88.90;;;;;;5036518;28;20469;-72
2021/05/07 07:14:45;;;;;;;5.20;2.28;;;13.60;88.60;;;;;;5036756;28;20025;-72
2021/05/07 07:17:10;;;;;;;11.65;2.58;;;13.70;89.10;;;;;;5036290;28;20440;-72
2021/05/07 07:19:36;;;;;;;7.38;2.72;;;13.70;90.60;;;;;;5036494;28;20025;-72
2021/05/07 07:22:06;;;;;;;7.15;2.50;;;13.70;87.40;;;;;;5036728;28;20033;-72
2021/05/07 07:24:32;;;;;;;9.30;2.97;;;13.50;87.60;;;;;;5036781;28;20056;-72
2021/05/07 07:26:59;;;;;;;7.07;2.90;;;13.40;87.80;;;;;;5036302;28;20065;-72
2021/05/07 07:29:25;;;;;;;7.78;2.30;;;13.20;88.70;;;;;;5036662;28;20028;-72
2021/05/07 07:31:51;;;;;;;9.23;2.65;;;13.10;89.60;;;;;;5036334;28;20017;-72
2021/05/07 07:34:18;;;;;;;6.22;2.50;;;13.10;91.10;;;;;;5036539;28;20056;-72
2021/05/07 07:36:45;;;;;;;11.52;3.38;;;13.10;91.70;;;;;;5036335;28;20117;-71
2021/05/07 07:39:12;;;;;;;8.95;3.50;;;13.10;92.00;;;;;;5036247;28;20045;-72
2021/05/07 07:41:38;;;;;;;14.32;3.22;;;13.20;91.40;;;;;;5036513;28;20029;-72
2021/05/07 07:44:04;;;;;;;11.63;4.35;;;13.20;91.50;;;;;;5036176;28;20365;-72
2021/05/07 07:46:30;;;;;;;9.02;3.90;;;13.30;90.10;;;;;;5036494;28;20026;-72
2021/05/07 07:48:56;;;;;;;8.13;3.42;;;13.30;90.40;;;;;;5036092;28;20440;-72
2021/05/07 07:51:23;;;;;;;9.35;3.60;;;13.30;90.00;;;;;;5036218;28;20029;-72
2021/05/07 07:53:48;;;;;;;11.77;3.67;;;13.30;89.70;;;;;;5036304;28;20036;-72
2021/05/07 07:56:14;;;;;;;9.13;3.38;;;13.30;90.40;;;;;;5036378;28;20033;-72
2021/05/07 07:58:40;;;;;;;7.00;3.33;;;13.30;90.10;;;;;;5038276;28;20043;-72
2021/05/07 08:01:06;;;;;;;9.77;2.72;;;13.40;90.80;;;;;;5039776;28;20113;-71
2021/05/07 08:03:32;;;;;;;8.30;2.58;;;13.50;88.20;;;;;;5039720;28;20025;-72
2021/05/07 08:05:57;;;;;;;10.70;2.90;;;13.70;85.00;;;;;;5039722;28;20079;-72
2021/05/07 08:08:24;;;;;;;13.82;3.03;;;13.90;85.50;;;;;;5039897;28;20022;-71
2021/05/07 08:10:50;;;;;;;7.28;2.08;;;14.00;85.30;;;;;;5039610;28;20436;-72
2021/05/07 08:13:16;;;;;;;7.30;2.13;;;14.20;82.20;;;;;;5039655;28;20017;-72
2021/05/07 08:15:42;;;;;;;12.57;3.13;;;14.30;82.40;;;;;;5039756;28;20104;-72
2021/05/07 08:18:07;;;;;;;12.73;3.22;;;14.40;83.00;;;;;;5039418;28;20437;-72
2021/05/07 08:20:33;;;;;;;13.48;2.60;;;14.50;80.30;;;;;;5039428;28;20302;-71
2021/05/07 08:22:59;;;;;;;13.82;2.50;;;14.50;80.70;;;;;;5039465;28;20025;-72
2021/05/07 08:25:24;;;;;;;6.18;2.10;;;14.50;82.00;;;;;;5039250;28;20044;-72
2021/05/07 08:27:50;;;;;;;7.20;2.17;;;14.60;82.40;;;;;;5039550;28;20033;-72
2021/05/07 08:30:16;;;;;;;7.50;2.80;;;14.60;83.20;;;;;;5039526;28;20052;-72
2021/05/07 08:32:42;;;;;;;7.50;2.28;;;14.70;82.00;;;;;;5039237;28;20021;-71
2021/05/07 08:35:09;;;;;;;10.20;2.47;;;14.80;84.20;;;;;;5038055;28;20029;-72
2021/05/07 08:37:42;;;;;;;6.30;2.05;;;14.90;82.80;;;;;;5039157;28;20100;-71
2021/05/07 08:40:09;;;;;;;6.13;1.95;;;15.10;80.80;;;;;;5039079;28;20038;-71
2021/05/07 08:42:35;;;;;;;11.27;2.95;;;15.40;79.00;;;;;;5039342;28;20164;-71
2021/05/07 08:45:00;;;;;;;15.43;3.30;;;15.50;79.90;;;;;;5038875;28;20422;-71
2021/05/07 08:47:31;;;;;;;9.80;3.40;;;15.50;81.20;;;;;;5039157;28;20030;-71
2021/05/07 08:49:58;;;;;;;8.07;3.20;;;15.60;83.50;;;;;;5039208;28;20321;-71
2021/05/07 08:52:24;;;;;;;12.73;3.30;;;15.60;79.40;;;;;;5039209;28;20052;-71
2021/05/07 08:54:50;;;;;;;10.20;2.90;;;15.90;80.50;;;;;;5039224;28;20033;-71
2021/05/07 08:57:17;;;;;;;13.23;2.85;;;16.50;80.60;;;;;;5038727;28;20395;-71
2021/05/07 08:59:42;;;;;;;7.75;2.60;;;17.40;73.80;;;;;;5038686;28;20036;-71
2021/05/07 09:02:08;;;;;;;6.35;2.17;;;18.50;70.80;;;;;;5038661;28;20021;-71
2021/05/07 09:04:34;;;;;;;9.65;2.25;;;19.70;67.00;;;;;;5038519;28;20030;-71
2021/05/07 09:06:59;;;;;;;14.80;2.70;;;20.70;68.00;;;;;;5038495;28;20029;-71
2021/05/07 09:09:31;;;;;;;10.43;2.83;;;21.30;63.10;;;;;;5037545;28;20029;-71
2021/05/07 09:11:59;;;;;;;10.43;2.47;;;21.90;63.80;;;;;;5038824;28;20375;-71
2021/05/07 09:14:28;;;;;;;9.20;2.20;;;22.40;62.40;;;;;;5038345;28;20469;-71
2021/05/07 09:16:59;;;;;;;9.73;2.10;;;22.40;64.60;;;;;;5038545;28;20100;-72
2021/05/07 09:19:27;;;;;;;5.97;2.10;;;22.40;62.10;;;;;;5038374;28;20060;-71
2021/05/07 09:21:54;;;;;;;9.75;2.10;;;22.80;63.20;;;;;;5038638;28;20406;-71
2021/05/07 09:24:30;;;;;;;9.40;2.08;;;22.30;60.40;;;;;;5038619;28;20309;-71
2021/05/07 09:26:56;;;;;;;10.52;2.25;;;22.80;60.30;;;;;;5038147;28;20481;-71
2021/05/07 09:29:23;;;;;;;11.63;2.42;;;22.40;61.30;;;;;;5038140;28;20152;-71
2021/05/07 09:31:51;;;;;;;6.22;2.35;;;22.80;60.90;;;;;;5038398;28;20064;-72
2021/05/07 09:34:18;;;;;;;8.25;2.58;;;23.50;59.60;;;;;;5038283;28;20083;-72
2021/05/07 09:36:45;;;;;;;10.45;2.47;;;23.90;57.50;;;;;;5037981;28;20076;-71
2021/05/07 09:39:16;;;;;;;9.68;3.08;;;23.40;58.20;;;;;;5037909;28;20030;-71
2021/05/07 09:41:48;;;;;;;8.48;2.67;;;22.30;58.60;;;;;;5037939;28;20095;-71
2021/05/07 09:44:18;;;;;;;8.98;2.22;;;21.60;63.30;;;;;;5038115;28;20030;-71
2021/05/07 09:46:45;;;;;;;10.52;2.80;;;22.10;61.60;;;;;;5037977;28;20033;-71
2021/05/07 09:49:25;;;;;;;6.97;2.40;;;22.50;60.80;;;;;;5037962;28;20021;-71
2021/05/07 09:51:51;;;;;;;10.18;2.70;;;23.10;59.00;;;;;;5038029;28;20043;-72
2021/05/07 09:54:16;;;;;;;11.77;2.72;;;23.40;58.50;;;;;;5038076;28;20365;-71
2021/05/07 09:56:43;;;;;;;6.78;2.08;;;23.30;60.10;;;;;;5037592;28;20025;-71
2021/05/07 09:59:09;;;;;;;10.25;2.38;;;22.30;60.50;;;;;;5037932;28;20045;-71
2021/05/07 10:01:35;;;;;;;7.25;2.50;;;21.40;61.90;;;;;;5037609;28;20030;-71
2021/05/07 10:04:01;;;;;;;12.88;2.90;;;20.50;64.70;;;;;;5037716;28;20021;-71
2021/05/07 10:06:28;;;;;;;9.18;2.58;;;20.00;67.40;;;;;;5037479;28;20029;-71
2021/05/07 10:08:54;;;;;;;9.70;3.10;;;19.40;68.50;;;;;;5037643;28;20034;-71
2021/05/07 10:11:22;;;;;;;10.45;2.92;;;19.00;71.80;;;;;;5037650;28;20104;-71
2021/05/07 10:13:51;;;;;;;8.70;3.22;;;18.70;71.50;;;;;;5036833;28;20036;-71
2021/05/07 10:16:28;;;;;;;8.70;3.05;;;18.60;70.20;;;;;;5041298;28;20337;-71
2021/05/07 10:19:01;;;;;;;7.80;2.50;;;18.40;74.00;;;;;;5052733;28;20052;-71
2021/05/07 10:21:43;;;;;;;7.07;2.63;;;18.40;72.40;;;;;;5057194;28;20052;-71
2021/05/07 10:24:14;;;;;;;9.25;2.95;;;18.10;74.30;;;;;;5057443;28;20029;-71
2021/05/07 10:26:41;;;;;;;9.68;2.97;;;17.80;75.40;;;;;;5057327;28;20025;-71
2021/05/07 10:29:20;;;;;;;10.65;3.30;;;17.70;76.90;;;;;;5057184;28;20040;-71
2021/05/07 10:31:53;;;;;;;9.38;3.67;;;17.60;74.40;;;;;;5057288;28;20302;-71
2021/05/07 10:34:21;;;;;;;13.80;3.08;;;17.50;74.80;;;;;;5057183;28;20163;-71
2021/05/07 10:36:52;;;;;;;10.23;2.95;;;17.40;78.20;;;;;;5056830;28;20045;-71
2021/05/07 10:39:30;;;;;;;9.15;3.15;;;17.20;75.40;;;;;;5057121;28;20029;-71
2021/05/07 10:41:59;;;;;;;7.15;2.75;;;17.10;74.50;;;;;;5057081;28;20429;-71
2021/05/07 10:44:27;;;;;;;11.00;3.17;;;17.10;75.80;;;;;;5057033;28;20403;-71
2021/05/07 10:47:09;;;;;;;8.50;3.42;;;17.00;76.40;;;;;;5056926;28;20083;-71
2021/05/07 10:49:38;;;;;;;12.00;3.38;;;16.90;75.90;;;;;;5056999;28;20052;-71
2021/05/07 10:52:08;;;;;;;9.98;2.92;;;17.00;77.90;;;;;;5057012;28;20049;-71
2021/05/07 10:54:46;;;;;;;17.17;2.72;;;16.90;76.20;;;;;;5057002;28;20025;-71
2021/05/07 10:57:27;;;;;;;10.70;3.58;;;17.00;78.90;;;;;;5056931;28;20412;-71
2021/05/07 11:00:04;;;;;;;11.07;2.85;;;16.90;77.10;;;;;;5056874;28;20325;-71
2021/05/07 11:02:41;;;;;;;14.05;2.72;;;16.90;78.60;;;;;;5056535;28;20036;-71
2021/05/07 11:05:07;;;;;;;7.45;2.70;;;17.00;78.60;;;;;;5056748;28;20033;-71
2021/05/07 11:07:34;;;;;;;10.77;2.80;;;17.10;78.00;;;;;;5056619;28;20029;-71
2021/05/07 11:10:07;;;;;;;9.00;2.97;;;17.10;79.50;;;;;;5056453;28;20025;-71
2021/05/07 11:12:35;;;;;;;9.15;3.50;;;17.20;77.50;;;;;;5056827;28;20128;-71
2021/05/07 11:15:01;;;;;;;13.70;4.28;;;17.40;75.50;;;;;;5056626;28;20317;-71
2021/05/07 11:17:26;;;;;;;5.68;2.65;;;17.50;77.00;;;;;;5056215;28;20049;-71
2021/05/07 11:19:52;;;;;;;13.15;3.90;;;17.70;78.30;;;;;;5056408;28;20107;-71
2021/05/07 11:22:24;;;;;;;10.65;3.25;;;17.90;77.50;;;;;;5056666;28;20108;-71
2021/05/07 11:24:50;;;;;;;12.20;3.90;;;17.90;77.40;;;;;;5056823;28;20029;-71
2021/05/07 11:27:27;;;;;;;13.70;3.65;;;17.70;74.50;;;;;;5056221;28;20040;-71
2021/05/07 11:30:04;;;;;;;13.15;4.20;;;17.40;75.80;;;;;;5056599;28;20017;-71
2021/05/07 11:32:30;;;;;;;10.63;2.95;;;17.10;77.00;;;;;;5056386;28;20031;-71
2021/05/07 11:35:08;;;;;;;10.73;3.35;;;16.90;78.60;;;;;;5060182;28;20023;-71
2021/05/07 11:37:34;;;;;;;11.18;5.72;;;16.70;79.20;;;;;;5060543;28;20326;-71
2021/05/07 11:40:07;;;;;;;15.60;4.70;;;16.40;79.40;;;;;;5060146;28;20025;-71
2021/05/07 11:42:33;;;;;;;12.93;4.43;;;16.20;80.40;;;;;;5060430;28;20029;-71
2021/05/07 11:45:07;;;;;;;10.35;4.00;;;16.20;81.80;;;;;;5060000;28;20105;-71
2021/05/07 11:47:34;;;;;;;12.82;3.97;;;16.00;82.30;;;;;;5059938;28;20055;-71
2021/05/07 11:50:00;;;;;;;11.73;3.72;;;16.10;82.00;;;;;;5060248;28;20024;-71
2021/05/07 11:52:52;;;;;;;11.02;3.83;;;16.20;83.50;;;;;;5059920;28;20423;-71
2021/05/07 11:55:18;;;;;;;11.43;4.05;;;16.20;83.70;;;;;;5059541;28;20066;-71
2021/05/07 11:57:44;;;;;;;9.50;4.20;;;16.10;81.90;;;;;;5060139;28;20037;-71
2021/05/07 12:00:18;;;;;;;13.88;4.18;;;16.00;82.10;;;;;;5059755;28;20489;-71
2021/05/07 12:02:44;;;;;;;10.27;4.97;;;15.90;83.30;;;;;;5060049;28;20325;-71
2021/05/07 12:05:10;;;;;;;9.02;3.80;;;15.70;82.50;;;;;;5059908;28;20017;-71
2021/05/07 12:07:39;;;;;;;23.20;4.93;;;15.60;84.80;;;;;;5059567;28;20129;-71
2021/05/07 12:10:05;;;;;;;13.60;4.22;;;15.60;86.20;;;;;;5059885;28;20021;-71
2021/05/07 12:12:44;;;;;;;9.77;4.45;;;15.60;84.40;;;;;;5059637;28;20128;-71
2021/05/07 12:15:13;;;;;;;14.13;4.38;;;15.50;85.80;;;;;;5059685;28;20070;-71
2021/05/07 12:17:47;;;;;;;12.00;4.47;;;15.50;83.80;;;;;;5059509;28;20061;-71
2021/05/07 12:20:15;;;;;;;14.20;4.15;;;15.50;85.30;;;;;;5059727;28;20021;-71
2021/05/07 12:22:41;;;;;;;13.60;4.28;;;15.50;85.50;;;;;;5059305;28;20029;-71
2021/05/07 12:25:07;;;;;;;10.00;3.90;;;15.60;85.70;;;;;;5059568;28;20037;-71
2021/05/07 12:27:33;;;;;;;10.73;4.60;;;15.60;87.00;;;;;;5059146;28;20056;-71
2021/05/07 12:29:59;;;;;;;14.63;4.70;;;15.50;85.30;;;;;;5059514;28;20143;-71
2021/05/07 12:32:25;;;;;;;9.75;5.03;;;15.50;84.70;;;;;;5059225;28;20402;-71
2021/05/07 12:34:58;;;;;;;11.30;4.25;;;15.40;85.50;;;;;;5059376;28;20032;-71
2021/05/07 12:37:24;;;;;;;16.83;5.07;;;15.40;87.30;;;;;;5059409;28;20074;-71
2021/05/07 12:39:50;;;;;;;17.48;5.00;;;15.30;87.10;;;;;;5059312;28;20029;-71
2021/05/07 12:42:15;;;;;;;11.18;4.22;;;15.30;88.00;;;;;;5059024;28;20321;-71
2021/05/07 12:44:41;;;;;;;12.13;4.90;;;15.20;87.00;;;;;;5059136;28;20033;-71